createdAt,value
2019-06-01T00:01:44.692Z,6.10
2019-06-01T00:06:54.316Z,5.67
2019-06-01T00:12:01.331Z,5.83
2019-06-01T00:17:04.467Z,6.20
2019-06-01T00:22:06.299Z,6.17
2019-06-01T00:27:09.012Z,5.77
2019-06-01T00:32:10.801Z,6.00
2019-06-01T00:37:12.911Z,5.90
2019-06-01T00:42:14.740Z,6.07
2019-06-01T00:47:19.926Z,6.30
2019-06-01T00:52:21.589Z,5.77
2019-06-01T00:57:23.617Z,6.53
2019-06-01T01:02:25.434Z,5.97
2019-06-01T01:07:27.302Z,6.10
2019-06-01T01:12:29.133Z,5.73
2019-06-01T01:17:30.935Z,6.17
2019-06-01T01:22:32.778Z,6.70
2019-06-01T01:27:34.929Z,6.23
2019-06-01T01:32:38.117Z,6.83
2019-06-01T01:37:40.058Z,7.00
2019-06-01T01:42:44.893Z,6.47
2019-06-01T01:47:46.836Z,6.20
2019-06-01T01:52:48.638Z,7.87
2019-06-01T01:57:51.772Z,7.07
2019-06-01T02:02:54.049Z,6.80
2019-06-01T02:07:56.998Z,7.13
2019-06-01T02:13:00.065Z,7.13
2019-06-01T02:18:04.827Z,7.30
2019-06-01T02:23:06.658Z,8.10
2019-06-01T02:28:08.756Z,7.90
2019-06-01T02:33:11.023Z,9.03
2019-06-01T02:38:12.818Z,8.93
2019-06-01T02:43:14.706Z,8.77
2019-06-01T02:48:19.595Z,9.60
2019-06-01T02:53:23.792Z,9.73
2019-06-01T02:58:25.623Z,9.83
2019-06-01T03:03:27.430Z,10.37
2019-06-01T03:08:31.046Z,10.30
2019-06-01T03:13:36.155Z,10.57
2019-06-01T03:18:41.654Z,10.83
2019-06-01T03:23:46.817Z,11.73
2019-06-01T03:28:51.400Z,11.70
2019-06-01T03:33:55.742Z,11.50
2019-06-01T03:38:59.947Z,12.37
2019-06-01T03:44:04.466Z,12.30
2019-06-01T03:49:09.791Z,12.80
2019-06-01T03:54:13.161Z,12.73
2019-06-01T03:59:15.073Z,13.07
2019-06-01T04:04:16.879Z,12.30
2019-06-01T04:09:18.693Z,12.60
2019-06-01T04:14:20.532Z,12.97
2019-06-01T04:19:22.334Z,13.93
2019-06-01T04:24:24.449Z,12.53
2019-06-01T04:29:26.287Z,12.40
2019-06-01T04:34:31.844Z,12.97
2019-06-01T04:39:33.661Z,12.00
2019-06-01T04:44:35.506Z,12.23
2019-06-01T04:49:37.082Z,12.80
2019-06-01T04:54:39.369Z,12.50
2019-06-01T04:59:41.176Z,11.07
2019-06-01T05:04:43.598Z,10.40
2019-06-01T05:09:45.956Z,10.20
2019-06-01T05:14:47.657Z,9.63
2019-06-01T05:19:49.460Z,9.30
2019-06-01T05:24:51.306Z,7.80
2019-06-01T05:29:55.952Z,8.20
2019-06-01T05:34:59.755Z,7.40
2019-06-01T05:40:01.604Z,6.10
2019-06-01T05:45:04.939Z,6.87
2019-06-01T05:50:07.395Z,6.40
2019-06-01T05:55:10.381Z,6.17
2019-06-01T06:00:13.212Z,6.17
2019-06-01T06:05:15.084Z,6.20
2019-06-01T06:10:18.477Z,5.97
2019-06-01T06:15:21.803Z,5.87
2019-06-01T06:20:23.724Z,5.97
2019-06-01T06:25:28.659Z,5.87
2019-06-01T06:30:29.557Z,5.83
2019-06-01T06:35:31.576Z,5.90
2019-06-01T06:40:33.491Z,6.47
2019-06-01T06:45:38.276Z,6.37
2019-06-01T06:50:40.096Z,6.20
2019-06-01T06:55:41.910Z,6.40
2019-06-01T07:00:43.782Z,6.17
2019-06-01T07:05:46.945Z,5.83
2019-06-01T07:10:50.590Z,6.13
2019-06-01T07:15:52.664Z,6.33
2019-06-01T07:20:58.026Z,5.70
2019-06-01T07:26:03.827Z,6.23
2019-06-01T07:31:05.692Z,6.27
2019-06-01T07:36:07.672Z,6.07
2019-06-01T07:41:09.481Z,6.30
2019-06-01T07:46:11.326Z,6.53
2019-06-01T07:51:13.250Z,6.20
2019-06-01T07:56:17.797Z,6.70
2019-06-01T08:01:19.624Z,5.87
2019-06-01T08:06:23.952Z,6.50
2019-06-01T08:11:30.089Z,6.77
2019-06-01T08:16:32.025Z,7.10
2019-06-01T08:21:34.059Z,6.63
2019-06-01T08:26:40.888Z,8.77
2019-06-01T08:31:42.736Z,7.10
2019-06-01T08:36:44.684Z,6.00
2019-06-01T08:41:46.497Z,8.20
2019-06-01T08:46:48.322Z,7.40
2019-06-01T08:51:50.143Z,7.10
2019-06-01T08:56:52.010Z,6.63
2019-06-01T09:01:53.806Z,7.67
2019-06-01T09:06:55.780Z,6.40
2019-06-01T09:11:57.614Z,6.57
2019-06-01T09:16:59.560Z,6.33
2019-06-01T09:22:01.385Z,5.70
2019-06-01T09:27:04.167Z,5.70
2019-06-01T09:32:10.487Z,5.40
2019-06-01T09:37:09.757Z,7.60
2019-06-01T09:42:11.579Z,7.87
2019-06-01T09:47:13.591Z,9.63
2019-06-01T09:52:15.442Z,6.83
2019-06-01T09:57:19.391Z,6.13
2019-06-01T10:02:22.107Z,7.47
2019-06-01T10:07:23.962Z,7.73
2019-06-01T10:12:25.771Z,6.00
2019-06-01T10:17:27.627Z,5.73
2019-06-01T10:22:33.097Z,6.57
2019-06-01T10:27:36.739Z,5.00
2019-06-01T10:32:39.913Z,6.30
2019-06-01T10:37:42.230Z,5.30
2019-06-01T10:42:44.079Z,5.57
2019-06-01T10:47:48.714Z,5.07
2019-06-01T10:52:50.526Z,6.50
2019-06-01T10:57:52.374Z,5.50
2019-06-01T11:02:57.055Z,4.93
2019-06-01T11:07:58.871Z,6.10
2019-06-01T11:13:00.980Z,6.00
2019-06-01T11:18:05.533Z,5.63
2019-06-01T11:23:07.357Z,5.00
2019-06-01T11:28:09.464Z,5.33
2019-06-01T11:33:11.273Z,5.77
2019-06-01T11:38:13.208Z,5.00
2019-06-01T11:43:15.387Z,4.90
2019-06-01T11:48:19.387Z,5.10
2019-06-01T11:53:21.365Z,4.33
2019-06-01T11:58:27.108Z,3.57
2019-06-01T12:03:31.222Z,3.67
2019-06-01T12:08:34.268Z,2.70
2019-06-01T12:13:37.969Z,2.60
2019-06-01T12:18:40.632Z,2.60
2019-06-01T12:23:43.230Z,2.73
2019-06-01T12:28:45.818Z,2.30
2019-06-01T12:33:49.635Z,2.53
2019-06-01T12:38:51.913Z,3.50
2019-06-01T12:44:12.936Z,3.10
2019-06-01T12:49:14.775Z,2.50
2019-06-01T12:54:16.453Z,2.97
2019-06-01T12:59:18.416Z,2.67
2019-06-01T13:04:20.422Z,2.03
2019-06-01T13:09:23.674Z,2.40
2019-06-01T13:14:25.788Z,2.60
2019-06-01T13:19:29.562Z,2.67
2019-06-01T13:24:31.593Z,2.40
2019-06-01T13:29:35.966Z,2.40
2019-06-01T13:34:37.678Z,2.60
2019-06-01T13:39:39.519Z,2.83
2019-06-01T13:44:41.351Z,2.70
2019-06-01T13:49:46.844Z,2.40
2019-06-01T13:54:52.457Z,2.50
2019-06-01T13:59:57.399Z,2.57
2019-06-01T14:04:59.124Z,2.80
2019-06-01T14:10:01.899Z,2.37
2019-06-01T14:15:04.297Z,2.33
2019-06-01T14:20:06.998Z,2.37
2019-06-01T14:25:14.183Z,2.63
2019-06-01T14:30:14.468Z,2.40
2019-06-01T14:35:16.279Z,2.30
2019-06-01T14:40:18.083Z,2.70
2019-06-01T14:45:20.158Z,2.70
2019-06-01T14:50:24.933Z,2.17
2019-06-01T14:55:26.956Z,2.40
2019-06-01T15:00:28.762Z,2.20
2019-06-01T15:05:35.432Z,2.00
2019-06-01T15:10:40.090Z,2.03
2019-06-01T15:15:42.196Z,2.30
2019-06-01T15:20:44.009Z,2.20
2019-06-01T15:25:47.644Z,2.00
2019-06-01T15:30:50.730Z,2.17
2019-06-01T15:35:55.983Z,2.00
2019-06-01T15:40:58.224Z,2.33
2019-06-01T15:46:06.560Z,2.47
2019-06-01T15:51:10.595Z,3.33
2019-06-01T15:56:14.424Z,3.00
2019-06-01T16:01:18.999Z,4.13
2019-06-01T16:06:20.859Z,4.10
2019-06-01T16:11:22.681Z,4.13
2019-06-01T16:16:24.709Z,5.53
2019-06-01T16:21:26.553Z,9.03
2019-06-01T16:26:28.183Z,6.60
2019-06-01T16:31:32.125Z,7.10
2019-06-01T16:36:34.039Z,7.00
2019-06-01T16:41:35.821Z,6.20
2019-06-01T16:46:43.034Z,6.40
2019-06-01T16:51:56.406Z,6.23
2019-06-01T16:57:05.239Z,6.27
2019-06-01T17:02:07.931Z,6.30
2019-06-01T17:07:10.367Z,6.03
2019-06-01T17:12:15.240Z,6.60
2019-06-01T17:17:17.378Z,6.33
2019-06-01T17:22:19.245Z,5.57
2019-06-01T17:27:21.060Z,6.17
2019-06-01T17:32:24.552Z,7.13
2019-06-01T17:37:26.572Z,9.50
2019-06-01T17:42:28.567Z,7.00
2019-06-01T17:47:32.747Z,6.83
2019-06-01T17:52:36.416Z,8.50
2019-06-01T17:57:38.962Z,8.63
2019-06-01T18:02:40.826Z,7.97
2019-06-01T18:07:46.132Z,7.90
2019-06-01T18:12:48.066Z,7.80
2019-06-01T18:17:54.171Z,8.67
2019-06-01T18:23:00.483Z,8.53
2019-06-01T18:28:07.145Z,8.00
2019-06-01T18:33:09.501Z,7.60
2019-06-01T18:38:13.019Z,7.53
2019-06-01T18:43:17.297Z,7.30
2019-06-01T18:48:19.707Z,7.50
2019-06-01T18:53:21.885Z,8.20
2019-06-01T18:58:24.060Z,6.77
2019-06-01T19:03:25.975Z,7.83
2019-06-01T19:08:28.096Z,7.07
2019-06-01T19:13:31.886Z,7.23
2019-06-01T19:18:34.317Z,7.50
2019-06-01T19:23:36.333Z,6.60
2019-06-01T19:28:39.162Z,6.97
2019-06-01T19:33:42.871Z,6.20
2019-06-01T19:38:45.395Z,6.87
2019-06-01T19:43:49.827Z,7.77
2019-06-01T19:48:51.568Z,5.90
2019-06-01T19:53:53.392Z,7.47
2019-06-01T19:58:57.442Z,8.03
2019-06-01T20:03:59.331Z,10.70
2019-06-01T20:09:01.146Z,7.67
2019-06-01T20:14:03.483Z,8.50
2019-06-01T20:19:06.534Z,8.97
2019-06-01T20:24:09.656Z,8.07
2019-06-01T20:29:12.745Z,8.07
2019-06-01T20:34:15.868Z,7.67
2019-06-01T20:39:18.282Z,8.50
2019-06-01T20:44:20.968Z,8.50
2019-06-01T20:49:24.450Z,8.00
2019-06-01T20:54:27.560Z,8.00
2019-06-01T20:59:31.896Z,8.07
2019-06-01T21:04:36.737Z,9.10
2019-06-01T21:09:38.653Z,8.70
2019-06-01T21:14:41.114Z,10.33
2019-06-01T21:19:43.132Z,10.10
2019-06-01T21:24:45.087Z,10.17
2019-06-01T21:29:48.665Z,11.07
2019-06-01T21:34:50.690Z,10.60
2019-06-01T21:39:52.504Z,11.20
2019-06-01T21:44:54.377Z,10.10
2019-06-01T21:49:56.262Z,10.83
2019-06-01T21:54:58.326Z,10.43
2019-06-01T22:00:02.720Z,11.00
2019-06-01T22:05:05.222Z,10.77
2019-06-01T22:10:07.865Z,10.03
2019-06-01T22:15:12.763Z,10.43
2019-06-01T22:20:16.013Z,10.50
2019-06-01T22:25:18.491Z,10.93
2019-06-01T22:30:22.429Z,10.70
2019-06-01T22:35:24.783Z,10.97
2019-06-01T22:40:29.520Z,10.70
2019-06-01T22:45:31.366Z,10.57
2019-06-01T22:50:33.307Z,10.23
2019-06-01T22:55:35.501Z,11.23
2019-06-01T23:00:37.310Z,10.80
2019-06-01T23:05:39.207Z,10.93
2019-06-01T23:10:41.097Z,10.60
2019-06-01T23:15:43.149Z,10.50
2019-06-01T23:20:44.964Z,10.47
2019-06-01T23:25:51.686Z,10.90
2019-06-01T23:30:53.533Z,10.27
2019-06-01T23:35:56.261Z,10.20
2019-06-01T23:40:58.074Z,9.57
2019-06-01T23:46:00.010Z,8.93
2019-06-01T23:51:01.900Z,8.20
2019-06-01T23:56:03.889Z,8.87
